sensor_id;sensor_type;location;lat;lon;timestamp;P1;durP1;ratioP1;P2;durP2;ratioP2
5801;SDS011;2927;49.366;8.530;2022-07-29T00:00:46;3.37;;;2.80;;
5801;SDS011;2927;49.366;8.530;2022-07-29T00:03:12;5.70;;;2.53;;
5801;SDS011;2927;49.366;8.530;2022-07-29T00:05:38;3.80;;;2.53;;
5801;SDS011;2927;49.366;8.530;2022-07-29T00:08:04;3.13;;;2.30;;
5801;SDS011;2927;49.366;8.530;2022-07-29T00:10:30;4.27;;;2.20;;
5801;SDS011;2927;49.366;8.530;2022-07-29T00:12:56;2.90;;;2.47;;
5801;SDS011;2927;49.366;8.530;2022-07-29T00:15:21;4.37;;;2.50;;
5801;SDS011;2927;49.366;8.530;2022-07-29T00:17:47;5.07;;;2.67;;
5801;SDS011;2927;49.366;8.530;2022-07-29T00:20:12;3.43;;;2.10;;
5801;SDS011;2927;49.366;8.530;2022-07-29T00:22:38;3.53;;;2.30;;
5801;SDS011;2927;49.366;8.530;2022-07-29T00:25:04;3.00;;;2.63;;
5801;SDS011;2927;49.366;8.530;2022-07-29T00:27:30;3.20;;;2.00;;
5801;SDS011;2927;49.366;8.530;2022-07-29T00:29:56;2.50;;;2.07;;
5801;SDS011;2927;49.366;8.530;2022-07-29T00:32:21;2.53;;;2.33;;
5801;SDS011;2927;49.366;8.530;2022-07-29T00:34:47;2.60;;;2.40;;
5801;SDS011;2927;49.366;8.530;2022-07-29T00:37:31;4.00;;;2.87;;
5801;SDS011;2927;49.366;8.530;2022-07-29T00:39:57;5.27;;;2.80;;
5801;SDS011;2927;49.366;8.530;2022-07-29T00:42:22;4.73;;;3.27;;
5801;SDS011;2927;49.366;8.530;2022-07-29T00:44:48;2.87;;;2.50;;
5801;SDS011;2927;49.366;8.530;2022-07-29T00:47:13;4.77;;;2.77;;
5801;SDS011;2927;49.366;8.530;2022-07-29T00:49:40;4.63;;;2.80;;
5801;SDS011;2927;49.366;8.530;2022-07-29T00:52:07;4.93;;;2.80;;
5801;SDS011;2927;49.366;8.530;2022-07-29T00:54:34;3.40;;;3.10;;
5801;SDS011;2927;49.366;8.530;2022-07-29T00:56:59;3.23;;;2.93;;
5801;SDS011;2927;49.366;8.530;2022-07-29T00:59:26;5.17;;;3.03;;
5801;SDS011;2927;49.366;8.530;2022-07-29T01:01:53;4.90;;;3.00;;
5801;SDS011;2927;49.366;8.530;2022-07-29T01:04:19;5.37;;;2.83;;
5801;SDS011;2927;49.366;8.530;2022-07-29T01:06:46;3.27;;;2.60;;
5801;SDS011;2927;49.366;8.530;2022-07-29T01:09:13;3.60;;;2.57;;
5801;SDS011;2927;49.366;8.530;2022-07-29T01:11:39;4.03;;;3.57;;
5801;SDS011;2927;49.366;8.530;2022-07-29T01:14:06;5.53;;;3.23;;
5801;SDS011;2927;49.366;8.530;2022-07-29T01:16:33;3.60;;;3.10;;
5801;SDS011;2927;49.366;8.530;2022-07-29T01:19:07;3.27;;;2.97;;
5801;SDS011;2927;49.366;8.530;2022-07-29T01:21:55;7.13;;;2.70;;
5801;SDS011;2927;49.366;8.530;2022-07-29T01:26:58;6.40;;;3.33;;
5801;SDS011;2927;49.366;8.530;2022-07-29T01:34:47;4.20;;;3.10;;
5801;SDS011;2927;49.366;8.530;2022-07-29T01:37:22;3.13;;;2.90;;
5801;SDS011;2927;49.366;8.530;2022-07-29T01:39:49;3.63;;;3.33;;
5801;SDS011;2927;49.366;8.530;2022-07-29T01:45:06;3.57;;;3.27;;
5801;SDS011;2927;49.366;8.530;2022-07-29T01:47:38;3.20;;;2.90;;
5801;SDS011;2927;49.366;8.530;2022-07-29T01:50:08;7.77;;;2.90;;
5801;SDS011;2927;49.366;8.530;2022-07-29T01:52:39;4.83;;;2.97;;
5801;SDS011;2927;49.366;8.530;2022-07-29T01:55:22;3.80;;;3.17;;
5801;SDS011;2927;49.366;8.530;2022-07-29T01:57:52;2.67;;;2.47;;
5801;SDS011;2927;49.366;8.530;2022-07-29T02:00:21;3.00;;;2.73;;
5801;SDS011;2927;49.366;8.530;2022-07-29T02:02:47;3.20;;;2.90;;
5801;SDS011;2927;49.366;8.530;2022-07-29T02:05:14;9.03;;;3.77;;
5801;SDS011;2927;49.366;8.530;2022-07-29T02:07:42;2.90;;;2.70;;
5801;SDS011;2927;49.366;8.530;2022-07-29T02:10:09;10.63;;;3.57;;
5801;SDS011;2927;49.366;8.530;2022-07-29T02:12:36;3.50;;;3.20;;
5801;SDS011;2927;49.366;8.530;2022-07-29T02:15:04;7.40;;;2.83;;
5801;SDS011;2927;49.366;8.530;2022-07-29T02:17:45;4.90;;;3.13;;
5801;SDS011;2927;49.366;8.530;2022-07-29T02:20:16;5.33;;;3.83;;
5801;SDS011;2927;49.366;8.530;2022-07-29T02:22:42;11.63;;;3.70;;
5801;SDS011;2927;49.366;8.530;2022-07-29T02:25:10;9.30;;;4.17;;
5801;SDS011;2927;49.366;8.530;2022-07-29T02:27:37;3.13;;;2.90;;
5801;SDS011;2927;49.366;8.530;2022-07-29T02:30:04;7.60;;;3.20;;
5801;SDS011;2927;49.366;8.530;2022-07-29T02:32:31;5.07;;;2.93;;
5801;SDS011;2927;49.366;8.530;2022-07-29T02:35:00;4.77;;;3.30;;
5801;SDS011;2927;49.366;8.530;2022-07-29T02:37:27;4.73;;;2.97;;
5801;SDS011;2927;49.366;8.530;2022-07-29T02:39:54;3.20;;;2.90;;
5801;SDS011;2927;49.366;8.530;2022-07-29T02:42:22;6.23;;;3.63;;
5801;SDS011;2927;49.366;8.530;2022-07-29T02:44:51;4.47;;;3.23;;
5801;SDS011;2927;49.366;8.530;2022-07-29T02:50:15;5.17;;;3.43;;
5801;SDS011;2927;49.366;8.530;2022-07-29T02:55:43;3.93;;;3.17;;
5801;SDS011;2927;49.366;8.530;2022-07-29T02:58:16;9.63;;;3.33;;
5801;SDS011;2927;49.366;8.530;2022-07-29T03:00:53;7.43;;;3.60;;
5801;SDS011;2927;49.366;8.530;2022-07-29T03:03:21;4.30;;;3.87;;
5801;SDS011;2927;49.366;8.530;2022-07-29T03:05:49;7.53;;;3.93;;
5801;SDS011;2927;49.366;8.530;2022-07-29T03:08:17;3.83;;;3.43;;
5801;SDS011;2927;49.366;8.530;2022-07-29T03:10:43;3.93;;;3.30;;
5801;SDS011;2927;49.366;8.530;2022-07-29T03:13:10;6.43;;;3.90;;
5801;SDS011;2927;49.366;8.530;2022-07-29T03:15:37;4.73;;;4.20;;
5801;SDS011;2927;49.366;8.530;2022-07-29T03:18:04;4.47;;;3.97;;
5801;SDS011;2927;49.366;8.530;2022-07-29T03:20:31;5.10;;;4.10;;
5801;SDS011;2927;49.366;8.530;2022-07-29T03:22:57;5.97;;;4.27;;
5801;SDS011;2927;49.366;8.530;2022-07-29T03:25:22;4.40;;;4.00;;
5801;SDS011;2927;49.366;8.530;2022-07-29T03:27:48;7.10;;;4.33;;
5801;SDS011;2927;49.366;8.530;2022-07-29T03:30:14;11.70;;;4.93;;
5801;SDS011;2927;49.366;8.530;2022-07-29T03:32:41;3.60;;;3.30;;
5801;SDS011;2927;49.366;8.530;2022-07-29T03:35:07;4.13;;;3.80;;
5801;SDS011;2927;49.366;8.530;2022-07-29T03:37:33;7.17;;;3.90;;
5801;SDS011;2927;49.366;8.530;2022-07-29T03:40:01;6.43;;;4.33;;
5801;SDS011;2927;49.366;8.530;2022-07-29T03:42:30;5.13;;;4.70;;
5801;SDS011;2927;49.366;8.530;2022-07-29T03:44:58;6.17;;;4.43;;
5801;SDS011;2927;49.366;8.530;2022-07-29T03:47:30;8.47;;;4.13;;
5801;SDS011;2927;49.366;8.530;2022-07-29T03:50:00;4.30;;;3.90;;
5801;SDS011;2927;49.366;8.530;2022-07-29T03:52:31;10.73;;;4.20;;
5801;SDS011;2927;49.366;8.530;2022-07-29T03:54:57;5.23;;;4.10;;
5801;SDS011;2927;49.366;8.530;2022-07-29T03:57:27;5.87;;;4.63;;
5801;SDS011;2927;49.366;8.530;2022-07-29T03:59:53;6.07;;;4.03;;
5801;SDS011;2927;49.366;8.530;2022-07-29T04:02:20;4.90;;;4.40;;
5801;SDS011;2927;49.366;8.530;2022-07-29T04:04:46;7.20;;;3.90;;
5801;SDS011;2927;49.366;8.530;2022-07-29T04:07:12;6.00;;;4.40;;
5801;SDS011;2927;49.366;8.530;2022-07-29T04:09:38;6.30;;;4.07;;
5801;SDS011;2927;49.366;8.530;2022-07-29T04:12:04;7.57;;;4.77;;
5801;SDS011;2927;49.366;8.530;2022-07-29T04:14:33;6.27;;;4.10;;
5801;SDS011;2927;49.366;8.530;2022-07-29T04:16:59;4.70;;;3.67;;
5801;SDS011;2927;49.366;8.530;2022-07-29T04:19:26;12.43;;;4.57;;
5801;SDS011;2927;49.366;8.530;2022-07-29T04:21:51;10.60;;;4.03;;
5801;SDS011;2927;49.366;8.530;2022-07-29T04:24:17;9.37;;;3.60;;
5801;SDS011;2927;49.366;8.530;2022-07-29T04:26:43;6.70;;;3.50;;
5801;SDS011;2927;49.366;8.530;2022-07-29T04:29:10;4.63;;;3.40;;
5801;SDS011;2927;49.366;8.530;2022-07-29T04:31:36;4.90;;;3.60;;
5801;SDS011;2927;49.366;8.530;2022-07-29T04:34:02;3.90;;;2.80;;
5801;SDS011;2927;49.366;8.530;2022-07-29T04:36:28;3.53;;;3.23;;
5801;SDS011;2927;49.366;8.530;2022-07-29T04:38:53;3.73;;;3.40;;
5801;SDS011;2927;49.366;8.530;2022-07-29T04:41:19;3.80;;;3.40;;
5801;SDS011;2927;49.366;8.530;2022-07-29T04:43:44;8.30;;;4.03;;
5801;SDS011;2927;49.366;8.530;2022-07-29T04:46:10;6.97;;;3.67;;
5801;SDS011;2927;49.366;8.530;2022-07-29T04:48:35;9.63;;;4.03;;
5801;SDS011;2927;49.366;8.530;2022-07-29T04:51:01;7.20;;;4.20;;
5801;SDS011;2927;49.366;8.530;2022-07-29T04:53:26;3.43;;;2.93;;
5801;SDS011;2927;49.366;8.530;2022-07-29T04:55:52;3.90;;;3.20;;
5801;SDS011;2927;49.366;8.530;2022-07-29T04:58:18;5.80;;;3.37;;
5801;SDS011;2927;49.366;8.530;2022-07-29T05:00:43;5.23;;;3.47;;
5801;SDS011;2927;49.366;8.530;2022-07-29T05:03:09;4.37;;;3.30;;
5801;SDS011;2927;49.366;8.530;2022-07-29T05:05:34;5.00;;;3.60;;
5801;SDS011;2927;49.366;8.530;2022-07-29T05:08:00;5.53;;;3.50;;
5801;SDS011;2927;49.366;8.530;2022-07-29T05:10:26;7.50;;;3.73;;
5801;SDS011;2927;49.366;8.530;2022-07-29T05:12:51;3.50;;;3.00;;
5801;SDS011;2927;49.366;8.530;2022-07-29T05:15:17;7.83;;;3.70;;
5801;SDS011;2927;49.366;8.530;2022-07-29T05:17:43;4.50;;;2.83;;
5801;SDS011;2927;49.366;8.530;2022-07-29T05:20:09;7.50;;;2.90;;
5801;SDS011;2927;49.366;8.530;2022-07-29T05:22:35;3.23;;;2.70;;
5801;SDS011;2927;49.366;8.530;2022-07-29T05:25:01;3.97;;;3.17;;
5801;SDS011;2927;49.366;8.530;2022-07-29T05:27:27;7.33;;;4.03;;
5801;SDS011;2927;49.366;8.530;2022-07-29T05:29:52;8.93;;;3.07;;
5801;SDS011;2927;49.366;8.530;2022-07-29T05:32:18;11.63;;;3.47;;
5801;SDS011;2927;49.366;8.530;2022-07-29T05:34:44;6.73;;;3.03;;
5801;SDS011;2927;49.366;8.530;2022-07-29T05:37:09;5.80;;;2.80;;
5801;SDS011;2927;49.366;8.530;2022-07-29T05:39:35;4.33;;;3.10;;
5801;SDS011;2927;49.366;8.530;2022-07-29T05:42:00;3.50;;;3.20;;
5801;SDS011;2927;49.366;8.530;2022-07-29T05:44:25;6.13;;;3.53;;
5801;SDS011;2927;49.366;8.530;2022-07-29T05:46:51;3.20;;;2.87;;
5801;SDS011;2927;49.366;8.530;2022-07-29T05:49:16;13.87;;;3.57;;
5801;SDS011;2927;49.366;8.530;2022-07-29T05:51:42;3.33;;;3.03;;
5801;SDS011;2927;49.366;8.530;2022-07-29T05:54:08;4.97;;;3.30;;
5801;SDS011;2927;49.366;8.530;2022-07-29T05:56:35;4.00;;;3.53;;
5801;SDS011;2927;49.366;8.530;2022-07-29T05:59:01;8.33;;;3.67;;
5801;SDS011;2927;49.366;8.530;2022-07-29T06:01:27;6.30;;;4.00;;
5801;SDS011;2927;49.366;8.530;2022-07-29T06:03:52;8.23;;;3.80;;
5801;SDS011;2927;49.366;8.530;2022-07-29T06:06:18;7.30;;;3.67;;
5801;SDS011;2927;49.366;8.530;2022-07-29T06:08:43;8.10;;;3.87;;
5801;SDS011;2927;49.366;8.530;2022-07-29T06:11:09;3.20;;;2.90;;
5801;SDS011;2927;49.366;8.530;2022-07-29T06:13:34;6.00;;;3.57;;
5801;SDS011;2927;49.366;8.530;2022-07-29T06:16:00;7.50;;;3.33;;
5801;SDS011;2927;49.366;8.530;2022-07-29T06:18:25;7.70;;;3.57;;
5801;SDS011;2927;49.366;8.530;2022-07-29T06:20:52;2.97;;;2.77;;
5801;SDS011;2927;49.366;8.530;2022-07-29T06:23:18;3.33;;;2.87;;
5801;SDS011;2927;49.366;8.530;2022-07-29T06:25:45;3.80;;;3.40;;
5801;SDS011;2927;49.366;8.530;2022-07-29T06:28:10;4.03;;;3.00;;
5801;SDS011;2927;49.366;8.530;2022-07-29T06:30:36;7.20;;;3.33;;
5801;SDS011;2927;49.366;8.530;2022-07-29T06:33:01;5.43;;;2.70;;
5801;SDS011;2927;49.366;8.530;2022-07-29T06:35:28;3.27;;;2.60;;
5801;SDS011;2927;49.366;8.530;2022-07-29T06:37:53;3.20;;;2.90;;
5801;SDS011;2927;49.366;8.530;2022-07-29T06:40:19;4.17;;;2.60;;
5801;SDS011;2927;49.366;8.530;2022-07-29T06:43:03;4.97;;;2.40;;
5801;SDS011;2927;49.366;8.530;2022-07-29T06:45:29;2.90;;;2.70;;
5801;SDS011;2927;49.366;8.530;2022-07-29T06:47:54;5.63;;;2.83;;
5801;SDS011;2927;49.366;8.530;2022-07-29T06:50:20;8.60;;;2.70;;
5801;SDS011;2927;49.366;8.530;2022-07-29T06:52:46;2.90;;;2.80;;
5801;SDS011;2927;49.366;8.530;2022-07-29T06:55:12;3.40;;;3.10;;
5801;SDS011;2927;49.366;8.530;2022-07-29T06:57:38;4.40;;;3.00;;
5801;SDS011;2927;49.366;8.530;2022-07-29T07:00:04;4.30;;;3.20;;
5801;SDS011;2927;49.366;8.530;2022-07-29T07:02:30;10.30;;;3.37;;
5801;SDS011;2927;49.366;8.530;2022-07-29T07:04:56;3.70;;;2.87;;
5801;SDS011;2927;49.366;8.530;2022-07-29T07:07:21;8.33;;;4.07;;
5801;SDS011;2927;49.366;8.530;2022-07-29T07:09:47;3.47;;;3.10;;
5801;SDS011;2927;49.366;8.530;2022-07-29T07:12:12;3.67;;;3.17;;
5801;SDS011;2927;49.366;8.530;2022-07-29T07:14:38;3.20;;;2.50;;
5801;SDS011;2927;49.366;8.530;2022-07-29T07:17:04;6.77;;;3.10;;
5801;SDS011;2927;49.366;8.530;2022-07-29T07:19:31;4.77;;;3.40;;
5801;SDS011;2927;49.366;8.530;2022-07-29T07:21:57;4.83;;;3.20;;
5801;SDS011;2927;49.366;8.530;2022-07-29T07:24:22;3.03;;;2.60;;
5801;SDS011;2927;49.366;8.530;2022-07-29T07:26:48;2.97;;;2.73;;
5801;SDS011;2927;49.366;8.530;2022-07-29T07:29:13;3.80;;;3.50;;
5801;SDS011;2927;49.366;8.530;2022-07-29T07:31:39;4.50;;;3.77;;
5801;SDS011;2927;49.366;8.530;2022-07-29T07:34:05;8.73;;;3.97;;
5801;SDS011;2927;49.366;8.530;2022-07-29T07:36:30;4.30;;;2.90;;
5801;SDS011;2927;49.366;8.530;2022-07-29T07:38:56;6.97;;;3.77;;
5801;SDS011;2927;49.366;8.530;2022-07-29T07:41:21;6.00;;;3.03;;
5801;SDS011;2927;49.366;8.530;2022-07-29T07:43:47;5.80;;;3.30;;
5801;SDS011;2927;49.366;8.530;2022-07-29T07:46:13;3.35;;;3.08;;
5801;SDS011;2927;49.366;8.530;2022-07-29T07:48:39;4.97;;;3.45;;
5801;SDS011;2927;49.366;8.530;2022-07-29T07:51:05;4.60;;;3.53;;
5801;SDS011;2927;49.366;8.530;2022-07-29T07:53:32;3.92;;;3.63;;
5801;SDS011;2927;49.366;8.530;2022-07-29T07:55:57;2.95;;;2.75;;
5801;SDS011;2927;49.366;8.530;2022-07-29T07:58:23;4.57;;;4.13;;
5801;SDS011;2927;49.366;8.530;2022-07-29T08:00:48;4.07;;;2.88;;
5801;SDS011;2927;49.366;8.530;2022-07-29T08:03:14;5.18;;;3.50;;
5801;SDS011;2927;49.366;8.530;2022-07-29T08:05:40;3.25;;;2.88;;
5801;SDS011;2927;49.366;8.530;2022-07-29T08:08:06;3.47;;;3.17;;
5801;SDS011;2927;49.366;8.530;2022-07-29T08:10:32;13.20;;;3.22;;
5801;SDS011;2927;49.366;8.530;2022-07-29T08:13:16;4.40;;;3.03;;
5801;SDS011;2927;49.366;8.530;2022-07-29T08:15:41;3.38;;;2.92;;
5801;SDS011;2927;49.366;8.530;2022-07-29T08:18:08;4.43;;;3.35;;
5801;SDS011;2927;49.366;8.530;2022-07-29T08:20:34;4.05;;;3.70;;
5801;SDS011;2927;49.366;8.530;2022-07-29T08:23:01;5.90;;;3.47;;
5801;SDS011;2927;49.366;8.530;2022-07-29T08:25:27;3.10;;;2.90;;
5801;SDS011;2927;49.366;8.530;2022-07-29T08:27:52;4.35;;;3.42;;
5801;SDS011;2927;49.366;8.530;2022-07-29T08:30:18;5.63;;;4.03;;
5801;SDS011;2927;49.366;8.530;2022-07-29T08:32:43;3.55;;;3.35;;
5801;SDS011;2927;49.366;8.530;2022-07-29T08:35:09;5.43;;;4.20;;
5801;SDS011;2927;49.366;8.530;2022-07-29T08:37:35;9.68;;;4.30;;
5801;SDS011;2927;49.366;8.530;2022-07-29T08:40:00;6.00;;;4.25;;
5801;SDS011;2927;49.366;8.530;2022-07-29T08:42:26;7.53;;;4.15;;
5801;SDS011;2927;49.366;8.530;2022-07-29T08:44:51;5.15;;;3.90;;
5801;SDS011;2927;49.366;8.530;2022-07-29T08:47:18;4.60;;;4.13;;
5801;SDS011;2927;49.366;8.530;2022-07-29T08:49:44;4.57;;;3.60;;
5801;SDS011;2927;49.366;8.530;2022-07-29T08:52:12;4.68;;;3.22;;
5801;SDS011;2927;49.366;8.530;2022-07-29T08:54:39;4.85;;;4.38;;
5801;SDS011;2927;49.366;8.530;2022-07-29T08:57:07;4.10;;;3.78;;
5801;SDS011;2927;49.366;8.530;2022-07-29T08:59:34;7.18;;;3.20;;
5801;SDS011;2927;49.366;8.530;2022-07-29T09:02:02;4.93;;;3.58;;
5801;SDS011;2927;49.366;8.530;2022-07-29T09:04:30;6.03;;;4.10;;
5801;SDS011;2927;49.366;8.530;2022-07-29T09:06:59;16.17;;;4.05;;
5801;SDS011;2927;49.366;8.530;2022-07-29T09:09:28;5.05;;;4.18;;
5801;SDS011;2927;49.366;8.530;2022-07-29T09:11:54;7.38;;;3.90;;
5801;SDS011;2927;49.366;8.530;2022-07-29T09:14:20;4.15;;;3.10;;
5801;SDS011;2927;49.366;8.530;2022-07-29T09:16:46;7.97;;;2.75;;
5801;SDS011;2927;49.366;8.530;2022-07-29T09:19:23;3.97;;;3.67;;
5801;SDS011;2927;49.366;8.530;2022-07-29T09:21:56;6.53;;;3.38;;
5801;SDS011;2927;49.366;8.530;2022-07-29T09:24:24;5.43;;;3.00;;
5801;SDS011;2927;49.366;8.530;2022-07-29T09:26:51;3.17;;;2.97;;
5801;SDS011;2927;49.366;8.530;2022-07-29T09:29:20;4.97;;;3.38;;
5801;SDS011;2927;49.366;8.530;2022-07-29T09:31:48;4.30;;;3.50;;
5801;SDS011;2927;49.366;8.530;2022-07-29T09:34:17;6.40;;;3.42;;
5801;SDS011;2927;49.366;8.530;2022-07-29T09:36:49;5.18;;;3.35;;
5801;SDS011;2927;49.366;8.530;2022-07-29T09:39:26;4.05;;;3.45;;
5801;SDS011;2927;49.366;8.530;2022-07-29T09:42:00;4.00;;;3.70;;
5801;SDS011;2927;49.366;8.530;2022-07-29T09:44:40;3.35;;;3.05;;
5801;SDS011;2927;49.366;8.530;2022-07-29T09:47:15;8.45;;;3.72;;
5801;SDS011;2927;49.366;8.530;2022-07-29T09:52:19;6.28;;;3.65;;
5801;SDS011;2927;49.366;8.530;2022-07-29T09:54:46;8.18;;;3.67;;
5801;SDS011;2927;49.366;8.530;2022-07-29T09:57:22;5.72;;;4.15;;
5801;SDS011;2927;49.366;8.530;2022-07-29T10:00:22;5.38;;;3.40;;
5801;SDS011;2927;49.366;8.530;2022-07-29T10:02:43;3.15;;;2.90;;
5801;SDS011;2927;49.366;8.530;2022-07-29T10:05:20;4.38;;;3.25;;
5801;SDS011;2927;49.366;8.530;2022-07-29T10:07:51;5.32;;;3.78;;
5801;SDS011;2927;49.366;8.530;2022-07-29T10:10:22;4.97;;;4.22;;
5801;SDS011;2927;49.366;8.530;2022-07-29T10:12:49;5.43;;;3.97;;
5801;SDS011;2927;49.366;8.530;2022-07-29T10:15:26;3.33;;;2.97;;
5801;SDS011;2927;49.366;8.530;2022-07-29T10:17:54;7.40;;;3.53;;
5801;SDS011;2927;49.366;8.530;2022-07-29T10:20:21;8.77;;;3.65;;
5801;SDS011;2927;49.366;8.530;2022-07-29T10:22:48;7.68;;;4.35;;
5801;SDS011;2927;49.366;8.530;2022-07-29T10:25:14;3.08;;;2.88;;
5801;SDS011;2927;49.366;8.530;2022-07-29T10:27:42;3.90;;;3.40;;
5801;SDS011;2927;49.366;8.530;2022-07-29T10:30:08;5.90;;;3.05;;
5801;SDS011;2927;49.366;8.530;2022-07-29T10:38:41;3.67;;;3.33;;
5801;SDS011;2927;49.366;8.530;2022-07-29T10:44:05;3.30;;;3.03;;
5801;SDS011;2927;49.366;8.530;2022-07-29T10:46:38;3.55;;;3.35;;
5801;SDS011;2927;49.366;8.530;2022-07-29T10:49:15;11.13;;;6.93;;
5801;SDS011;2927;49.366;8.530;2022-07-29T10:54:36;5.57;;;3.45;;
5801;SDS011;2927;49.366;8.530;2022-07-29T10:57:17;3.20;;;2.40;;
5801;SDS011;2927;49.366;8.530;2022-07-29T11:00:35;3.10;;;2.90;;
5801;SDS011;2927;49.366;8.530;2022-07-29T11:05:08;6.30;;;3.15;;
5801;SDS011;2927;49.366;8.530;2022-07-29T11:07:35;5.68;;;3.65;;
5801;SDS011;2927;49.366;8.530;2022-07-29T11:15:02;4.43;;;3.25;;
5801;SDS011;2927;49.366;8.530;2022-07-29T11:20:37;3.15;;;2.95;;
5801;SDS011;2927;49.366;8.530;2022-07-29T11:23:17;4.70;;;3.42;;
5801;SDS011;2927;49.366;8.530;2022-07-29T11:31:31;4.15;;;2.80;;
5801;SDS011;2927;49.366;8.530;2022-07-29T11:39:38;3.87;;;3.10;;
5801;SDS011;2927;49.366;8.530;2022-07-29T11:50:34;4.03;;;3.63;;
5801;SDS011;2927;49.366;8.530;2022-07-29T11:53:01;8.10;;;2.90;;
5801;SDS011;2927;49.366;8.530;2022-07-29T11:55:35;4.13;;;3.00;;
5801;SDS011;2927;49.366;8.530;2022-07-29T11:58:03;5.03;;;3.20;;
5801;SDS011;2927;49.366;8.530;2022-07-29T12:00:30;3.47;;;3.17;;
5801;SDS011;2927;49.366;8.530;2022-07-29T12:02:58;4.93;;;2.70;;
5801;SDS011;2927;49.366;8.530;2022-07-29T12:08:21;9.33;;;3.27;;
5801;SDS011;2927;49.366;8.530;2022-07-29T12:10:48;4.97;;;3.43;;
5801;SDS011;2927;49.366;8.530;2022-07-29T12:13:15;6.27;;;3.20;;
5801;SDS011;2927;49.366;8.530;2022-07-29T12:15:42;6.60;;;3.60;;
5801;SDS011;2927;49.366;8.530;2022-07-29T12:18:19;4.35;;;3.38;;
5801;SDS011;2927;49.366;8.530;2022-07-29T12:20:46;3.43;;;3.17;;
5801;SDS011;2927;49.366;8.530;2022-07-29T12:23:13;3.58;;;2.90;;
5801;SDS011;2927;49.366;8.530;2022-07-29T12:25:41;4.20;;;2.97;;
5801;SDS011;2927;49.366;8.530;2022-07-29T12:28:09;4.72;;;2.42;;
5801;SDS011;2927;49.366;8.530;2022-07-29T12:30:41;5.85;;;3.92;;
5801;SDS011;2927;49.366;8.530;2022-07-29T12:33:20;3.40;;;3.20;;
5801;SDS011;2927;49.366;8.530;2022-07-29T12:35:47;3.58;;;3.28;;
5801;SDS011;2927;49.366;8.530;2022-07-29T12:38:15;3.07;;;2.77;;
5801;SDS011;2927;49.366;8.530;2022-07-29T12:40:41;2.67;;;2.47;;
5801;SDS011;2927;49.366;8.530;2022-07-29T12:43:12;4.47;;;4.00;;
5801;SDS011;2927;49.366;8.530;2022-07-29T12:45:41;4.70;;;3.00;;
5801;SDS011;2927;49.366;8.530;2022-07-29T12:48:12;4.88;;;2.85;;
5801;SDS011;2927;49.366;8.530;2022-07-29T12:50:58;4.65;;;3.13;;
5801;SDS011;2927;49.366;8.530;2022-07-29T12:53:26;3.28;;;2.95;;
5801;SDS011;2927;49.366;8.530;2022-07-29T12:55:52;2.60;;;2.38;;
5801;SDS011;2927;49.366;8.530;2022-07-29T12:58:37;4.40;;;3.47;;
5801;SDS011;2927;49.366;8.530;2022-07-29T13:01:05;3.17;;;2.88;;
5801;SDS011;2927;49.366;8.530;2022-07-29T13:08:58;7.18;;;3.15;;
5801;SDS011;2927;49.366;8.530;2022-07-29T13:11:28;3.70;;;2.10;;
5801;SDS011;2927;49.366;8.530;2022-07-29T13:14:04;4.80;;;3.27;;
5801;SDS011;2927;49.366;8.530;2022-07-29T13:16:31;5.00;;;3.20;;
5801;SDS011;2927;49.366;8.530;2022-07-29T13:19:03;6.22;;;2.85;;
5801;SDS011;2927;49.366;8.530;2022-07-29T13:21:31;3.20;;;2.70;;
5801;SDS011;2927;49.366;8.530;2022-07-29T13:23:56;3.42;;;3.13;;
5801;SDS011;2927;49.366;8.530;2022-07-29T13:26:22;5.10;;;3.03;;
5801;SDS011;2927;49.366;8.530;2022-07-29T13:28:47;4.68;;;2.95;;
5801;SDS011;2927;49.366;8.530;2022-07-29T13:31:13;4.55;;;2.45;;
5801;SDS011;2927;49.366;8.530;2022-07-29T13:33:38;6.47;;;2.72;;
5801;SDS011;2927;49.366;8.530;2022-07-29T13:36:04;7.97;;;3.58;;
5801;SDS011;2927;49.366;8.530;2022-07-29T13:38:29;2.58;;;2.47;;
5801;SDS011;2927;49.366;8.530;2022-07-29T13:40:55;8.57;;;3.88;;
5801;SDS011;2927;49.366;8.530;2022-07-29T13:43:20;3.10;;;2.90;;
5801;SDS011;2927;49.366;8.530;2022-07-29T13:45:46;4.65;;;2.92;;
5801;SDS011;2927;49.366;8.530;2022-07-29T13:48:11;2.90;;;2.70;;
5801;SDS011;2927;49.366;8.530;2022-07-29T13:50:37;5.72;;;2.90;;
5801;SDS011;2927;49.366;8.530;2022-07-29T13:53:03;2.72;;;2.63;;
5801;SDS011;2927;49.366;8.530;2022-07-29T13:55:28;5.22;;;2.72;;
5801;SDS011;2927;49.366;8.530;2022-07-29T13:57:54;3.53;;;3.22;;
5801;SDS011;2927;49.366;8.530;2022-07-29T14:00:20;3.13;;;2.20;;
5801;SDS011;2927;49.366;8.530;2022-07-29T14:02:45;3.58;;;2.40;;
5801;SDS011;2927;49.366;8.530;2022-07-29T14:05:12;4.70;;;2.17;;
5801;SDS011;2927;49.366;8.530;2022-07-29T14:07:38;2.10;;;2.00;;
5801;SDS011;2927;49.366;8.530;2022-07-29T14:10:04;3.13;;;2.38;;
5801;SDS011;2927;49.366;8.530;2022-07-29T14:12:30;3.10;;;2.25;;
5801;SDS011;2927;49.366;8.530;2022-07-29T14:14:56;2.70;;;2.50;;
5801;SDS011;2927;49.366;8.530;2022-07-29T14:17:21;4.70;;;2.67;;
5801;SDS011;2927;49.366;8.530;2022-07-29T14:19:47;4.18;;;2.38;;
5801;SDS011;2927;49.366;8.530;2022-07-29T14:22:13;2.85;;;2.30;;
5801;SDS011;2927;49.366;8.530;2022-07-29T14:24:39;2.58;;;2.38;;
5801;SDS011;2927;49.366;8.530;2022-07-29T14:27:05;7.97;;;2.50;;
5801;SDS011;2927;49.366;8.530;2022-07-29T14:29:31;6.35;;;2.30;;
5801;SDS011;2927;49.366;8.530;2022-07-29T14:31:57;3.40;;;2.08;;
5801;SDS011;2927;49.366;8.530;2022-07-29T14:34:23;3.20;;;2.78;;
5801;SDS011;2927;49.366;8.530;2022-07-29T14:36:48;2.45;;;2.25;;
5801;SDS011;2927;49.366;8.530;2022-07-29T14:39:14;2.92;;;2.53;;
5801;SDS011;2927;49.366;8.530;2022-07-29T14:41:40;3.20;;;2.47;;
5801;SDS011;2927;49.366;8.530;2022-07-29T14:44:06;6.53;;;2.47;;
5801;SDS011;2927;49.366;8.530;2022-07-29T14:46:31;3.67;;;2.20;;
5801;SDS011;2927;49.366;8.530;2022-07-29T14:48:57;2.38;;;2.17;;
5801;SDS011;2927;49.366;8.530;2022-07-29T14:51:23;4.40;;;2.60;;
5801;SDS011;2927;49.366;8.530;2022-07-29T14:53:48;4.45;;;2.28;;
5801;SDS011;2927;49.366;8.530;2022-07-29T14:56:14;3.42;;;2.20;;
5801;SDS011;2927;49.366;8.530;2022-07-29T14:58:39;4.10;;;1.83;;
5801;SDS011;2927;49.366;8.530;2022-07-29T15:01:05;3.72;;;1.90;;
5801;SDS011;2927;49.366;8.530;2022-07-29T15:03:31;3.83;;;1.70;;
5801;SDS011;2927;49.366;8.530;2022-07-29T15:05:57;1.92;;;1.83;;
5801;SDS011;2927;49.366;8.530;2022-07-29T15:08:22;3.17;;;1.55;;
5801;SDS011;2927;49.366;8.530;2022-07-29T15:10:48;4.15;;;2.10;;
5801;SDS011;2927;49.366;8.530;2022-07-29T15:13:14;4.72;;;2.45;;
5801;SDS011;2927;49.366;8.530;2022-07-29T15:15:39;4.13;;;1.83;;
5801;SDS011;2927;49.366;8.530;2022-07-29T15:18:06;1.90;;;1.70;;
5801;SDS011;2927;49.366;8.530;2022-07-29T15:20:31;6.32;;;2.30;;
5801;SDS011;2927;49.366;8.530;2022-07-29T15:22:57;2.28;;;2.10;;
5801;SDS011;2927;49.366;8.530;2022-07-29T15:25:23;2.28;;;2.08;;
5801;SDS011;2927;49.366;8.530;2022-07-29T15:27:50;1.65;;;1.60;;
5801;SDS011;2927;49.366;8.530;2022-07-29T15:30:15;2.35;;;2.17;;
5801;SDS011;2927;49.366;8.530;2022-07-29T15:32:42;4.13;;;1.52;;
5801;SDS011;2927;49.366;8.530;2022-07-29T15:35:08;3.03;;;1.38;;
5801;SDS011;2927;49.366;8.530;2022-07-29T15:37:35;4.35;;;1.58;;
5801;SDS011;2927;49.366;8.530;2022-07-29T15:40:05;2.70;;;1.08;;
5801;SDS011;2927;49.366;8.530;2022-07-29T15:42:31;3.10;;;1.40;;
5801;SDS011;2927;49.366;8.530;2022-07-29T15:44:57;1.08;;;1.08;;
5801;SDS011;2927;49.366;8.530;2022-07-29T15:47:22;4.43;;;1.67;;
5801;SDS011;2927;49.366;8.530;2022-07-29T15:49:48;4.55;;;1.67;;
5801;SDS011;2927;49.366;8.530;2022-07-29T15:52:14;1.52;;;1.42;;
5801;SDS011;2927;49.366;8.530;2022-07-29T15:54:41;1.33;;;1.23;;
5801;SDS011;2927;49.366;8.530;2022-07-29T15:57:07;2.53;;;1.05;;
5801;SDS011;2927;49.366;8.530;2022-07-29T15:59:32;7.53;;;2.22;;
5801;SDS011;2927;49.366;8.530;2022-07-29T16:01:58;1.35;;;1.00;;
5801;SDS011;2927;49.366;8.530;2022-07-29T16:04:24;1.17;;;1.17;;
5801;SDS011;2927;49.366;8.530;2022-07-29T16:06:50;2.10;;;1.08;;
5801;SDS011;2927;49.366;8.530;2022-07-29T16:09:16;2.35;;;1.50;;
5801;SDS011;2927;49.366;8.530;2022-07-29T16:11:42;1.45;;;1.00;;
5801;SDS011;2927;49.366;8.530;2022-07-29T16:14:08;2.30;;;2.10;;
5801;SDS011;2927;49.366;8.530;2022-07-29T16:16:35;2.90;;;1.10;;
5801;SDS011;2927;49.366;8.530;2022-07-29T16:19:00;3.17;;;1.20;;
5801;SDS011;2927;49.366;8.530;2022-07-29T16:21:26;4.88;;;1.63;;
5801;SDS011;2927;49.366;8.530;2022-07-29T16:23:51;2.38;;;1.30;;
5801;SDS011;2927;49.366;8.530;2022-07-29T16:26:17;2.13;;;1.77;;